createdAt,value
2022-12-25T00:01:46.387Z,100114.97
2022-12-25T00:04:18.816Z,100121.59
2022-12-25T00:06:51.188Z,100118.03
2022-12-25T00:09:23.722Z,100127.43
2022-12-25T00:11:56.053Z,100131.45
2022-12-25T00:14:28.524Z,100128.03
2022-12-25T00:17:01.114Z,100132.26
2022-12-25T00:19:34.254Z,100134.73
2022-12-25T00:22:06.797Z,100137.84
2022-12-25T00:24:39.890Z,100141.30
2022-12-25T00:27:12.358Z,100137.09
2022-12-25T00:29:45.838Z,100138.25
2022-12-25T00:32:18.437Z,100140.72
2022-12-25T00:34:50.868Z,100145.64
2022-12-25T00:37:23.724Z,100142.27
2022-12-25T00:39:56.140Z,100148.98
2022-12-25T00:42:29.156Z,100148.42
2022-12-25T00:45:01.677Z,100147.27
2022-12-25T00:47:34.968Z,100148.80
2022-12-25T00:50:08.767Z,100149.56
2022-12-25T00:52:41.237Z,100148.81
2022-12-25T00:55:14.075Z,100143.06
2022-12-25T00:57:46.464Z,100142.28
2022-12-25T01:00:19.908Z,100138.94
2022-12-25T01:02:52.760Z,100138.74
2022-12-25T01:05:25.294Z,100136.70
2022-12-25T01:07:58.150Z,100146.32
2022-12-25T01:10:31.149Z,100152.44
2022-12-25T01:13:03.918Z,100153.03
2022-12-25T01:15:38.280Z,100156.09
2022-12-25T01:18:12.848Z,100164.52
2022-12-25T01:20:44.789Z,100158.95
2022-12-25T01:23:17.171Z,100158.39
2022-12-25T01:25:50.504Z,100158.30
2022-12-25T01:28:23.617Z,100165.19
2022-12-25T01:30:55.903Z,100169.02
2022-12-25T01:33:29.149Z,100170.55
2022-12-25T01:36:01.571Z,100167.10
2022-12-25T01:38:34.198Z,100175.16
2022-12-25T01:41:06.740Z,100177.16
2022-12-25T01:44:01.915Z,100174.39
2022-12-25T01:46:35.093Z,100177.37
2022-12-25T01:49:23.393Z,100175.44
2022-12-25T01:52:18.854Z,100176.51
2022-12-25T01:54:59.012Z,100177.86
2022-12-25T01:57:35.287Z,100179.30
2022-12-25T02:00:10.354Z,100176.21
2022-12-25T02:02:43.245Z,100174.31
2022-12-25T02:05:23.420Z,100171.81
2022-12-25T02:07:56.502Z,100174.78
2022-12-25T02:10:29.225Z,100177.27
2022-12-25T02:13:02.480Z,100175.34
2022-12-25T02:15:43.104Z,100176.13
2022-12-25T02:18:36.914Z,100176.13
2022-12-25T02:21:52.966Z,100186.86
2022-12-25T02:24:44.262Z,100188.01
2022-12-25T02:27:27.391Z,100194.34
2022-12-25T02:30:08.490Z,100190.97
2022-12-25T02:32:56.458Z,100198.55
2022-12-25T02:35:31.301Z,100192.87
2022-12-25T02:38:11.658Z,100198.83
2022-12-25T02:40:54.090Z,100201.33
2022-12-25T02:43:57.076Z,100201.52
2022-12-25T02:46:47.113Z,100208.51
2022-12-25T02:49:40.261Z,100207.16
2022-12-25T02:52:33.226Z,100208.04
2022-12-25T02:55:33.245Z,100214.75
2022-12-25T02:58:27.776Z,100219.33
2022-12-25T03:01:22.503Z,100214.66
2022-12-25T03:04:14.565Z,100222.10
2022-12-25T03:07:07.161Z,100222.19
2022-12-25T03:10:01.411Z,100226.22
2022-12-25T03:12:53.057Z,100227.18
2022-12-25T03:15:29.852Z,100232.14
2022-12-25T03:18:05.385Z,100238.01
2022-12-25T03:20:56.814Z,100243.93
2022-12-25T03:23:51.499Z,100245.36
2022-12-25T03:26:41.632Z,100248.05
2022-12-25T03:29:18.780Z,100241.14
2022-12-25T03:31:56.769Z,100246.12
2022-12-25T03:35:00.449Z,100247.29
2022-12-25T03:38:21.613Z,100248.36
2022-12-25T03:41:36.655Z,100246.34
2022-12-25T03:44:24.061Z,100250.65
2022-12-25T03:47:31.459Z,100260.73
2022-12-25T03:50:41.412Z,100258.05
2022-12-25T03:53:54.596Z,100257.49
2022-12-25T03:56:45.552Z,100261.52
2022-12-25T03:59:40.977Z,100263.42
2022-12-25T04:02:31.543Z,100270.13
2022-12-25T04:05:22.253Z,100268.41
2022-12-25T04:08:12.445Z,100278.07
2022-12-25T04:11:02.632Z,100276.03
2022-12-25T04:13:52.784Z,100274.41
2022-12-25T04:16:42.943Z,100281.75
2022-12-25T04:19:33.213Z,100273.52
2022-12-25T04:22:23.400Z,100281.94
2022-12-25T04:25:08.951Z,100285.95
2022-12-25T04:27:59.517Z,100284.53
2022-12-25T04:30:51.041Z,100286.56
2022-12-25T04:33:41.324Z,100292.22
2022-12-25T04:36:13.764Z,100302.02
2022-12-25T04:38:46.344Z,100293.47
2022-12-25T04:41:18.733Z,100301.61
2022-12-25T04:43:51.151Z,100301.70
2022-12-25T04:46:24.356Z,100302.66
2022-12-25T04:48:56.942Z,100301.32
2022-12-25T04:51:29.354Z,100310.16
2022-12-25T04:54:01.797Z,100314.94
2022-12-25T04:56:40.081Z,100316.36
2022-12-25T04:59:09.502Z,100319.84
2022-12-25T05:01:42.482Z,100322.61
2022-12-25T05:04:15.160Z,100320.80
2022-12-25T05:06:47.498Z,100320.68
2022-12-25T05:09:20.090Z,100329.52
2022-12-25T05:11:52.774Z,100320.82
2022-12-25T05:14:25.632Z,100322.36
2022-12-25T05:16:58.223Z,100328.61
2022-12-25T05:19:31.902Z,100333.97
2022-12-25T05:22:04.442Z,100344.56
2022-12-25T05:24:37.075Z,100341.03
2022-12-25T05:27:09.411Z,100332.48
2022-12-25T05:29:41.953Z,100339.10
2022-12-25T05:32:15.217Z,100348.50
2022-12-25T05:34:47.681Z,100348.91
2022-12-25T05:37:20.567Z,100350.42
2022-12-25T05:39:52.889Z,100353.11
2022-12-25T05:42:25.266Z,100357.77
2022-12-25T05:44:57.841Z,100365.91
2022-12-25T05:47:30.240Z,100370.38
2022-12-25T05:50:03.461Z,100371.80
2022-12-25T05:52:36.280Z,100367.77
2022-12-25T05:55:09.477Z,100378.92
2022-12-25T05:57:41.777Z,100379.38
2022-12-25T06:00:15.176Z,100382.45
2022-12-25T06:02:48.246Z,100386.00
2022-12-25T06:05:20.996Z,100385.63
2022-12-25T06:07:54.672Z,100388.48
2022-12-25T06:10:27.514Z,100397.08
2022-12-25T06:13:00.978Z,100404.37
2022-12-25T06:15:34.816Z,100403.11
2022-12-25T06:18:07.989Z,100402.33
2022-12-25T06:20:42.344Z,100413.92
2022-12-25T06:23:14.776Z,100410.11
2022-12-25T06:25:47.328Z,100425.83
2022-12-25T06:28:19.851Z,100421.39
2022-12-25T06:30:52.461Z,100417.45
2022-12-25T06:33:25.140Z,100429.61
2022-12-25T06:35:57.559Z,100432.29
2022-12-25T06:38:31.593Z,100436.31
2022-12-25T06:41:19.916Z,100435.94
2022-12-25T06:43:54.128Z,100434.00
2022-12-25T06:46:29.851Z,100438.41
2022-12-25T06:49:02.499Z,100442.52
2022-12-25T06:51:35.230Z,100449.13
2022-12-25T06:54:09.641Z,100443.39
2022-12-25T06:56:42.267Z,100451.02
2022-12-25T06:59:15.111Z,100456.52
2022-12-25T07:01:53.957Z,100461.80
2022-12-25T07:04:40.384Z,100470.25
2022-12-25T07:07:13.547Z,100470.25
2022-12-25T07:09:46.119Z,100476.46
2022-12-25T07:12:23.829Z,100482.70
2022-12-25T07:14:57.068Z,100473.48
2022-12-25T07:17:29.522Z,100477.13
2022-12-25T07:20:01.926Z,100483.04
2022-12-25T07:22:34.686Z,100490.54
2022-12-25T07:25:08.157Z,100490.92
2022-12-25T07:27:41.410Z,100491.71
2022-12-25T07:30:14.953Z,100497.16
2022-12-25T07:32:50.268Z,100500.01
2022-12-25T07:35:22.266Z,100505.45
2022-12-25T07:37:54.880Z,100511.78
2022-12-25T07:40:27.466Z,100513.67
2022-12-25T07:43:00.162Z,100507.34
2022-12-25T07:45:34.180Z,100511.45
2022-12-25T07:48:10.631Z,100512.70
2022-12-25T07:50:41.204Z,100517.91
2022-12-25T07:53:13.698Z,100527.67
2022-12-25T07:55:46.100Z,100524.06
2022-12-25T07:58:23.128Z,100529.52
2022-12-25T08:00:52.866Z,100523.11
2022-12-25T08:03:25.670Z,100521.52
2022-12-25T08:06:03.367Z,100516.83
2022-12-25T08:08:38.397Z,100521.64
2022-12-25T08:11:11.214Z,100527.39
2022-12-25T08:13:43.608Z,100519.09
2022-12-25T08:16:16.492Z,100525.09
2022-12-25T08:18:49.141Z,100520.98
2022-12-25T08:21:21.612Z,100523.25
2022-12-25T08:23:54.255Z,100524.13
2022-12-25T08:26:26.600Z,100523.25
2022-12-25T08:28:59.185Z,100527.11
2022-12-25T08:31:34.035Z,100523.33
2022-12-25T08:34:07.224Z,100526.77
2022-12-25T08:36:39.811Z,100536.16
2022-12-25T08:39:12.322Z,100535.99
2022-12-25T08:41:44.762Z,100541.74
2022-12-25T08:44:17.292Z,100542.16
2022-12-25T08:46:49.606Z,100546.56
2022-12-25T08:49:23.442Z,100545.22
2022-12-25T08:51:56.181Z,100544.55
2022-12-25T08:54:28.668Z,100550.54
2022-12-25T08:57:03.014Z,100554.40
2022-12-25T08:59:35.476Z,100553.81
2022-12-25T09:02:08.232Z,100553.81
2022-12-25T09:04:41.711Z,100561.53
2022-12-25T09:07:14.324Z,100563.13
2022-12-25T09:09:47.133Z,100555.83
2022-12-25T09:12:19.747Z,100554.31
2022-12-25T09:14:54.059Z,100562.28
2022-12-25T09:17:26.456Z,100562.45
2022-12-25T09:19:58.953Z,100555.28
2022-12-25T09:22:31.834Z,100555.95
2022-12-25T09:25:04.322Z,100559.60
2022-12-25T09:27:37.480Z,100572.94
2022-12-25T09:30:11.178Z,100572.69
2022-12-25T09:32:43.673Z,100568.19
2022-12-25T09:35:17.770Z,100574.78
2022-12-25T09:37:50.077Z,100578.14
2022-12-25T09:40:23.222Z,100588.66
2022-12-25T09:42:55.719Z,100596.30
2022-12-25T09:45:37.463Z,100597.48
2022-12-25T09:48:13.481Z,100602.13
2022-12-25T09:51:11.274Z,100597.94
2022-12-25T09:53:48.731Z,100603.05
2022-12-25T09:56:26.352Z,100597.19
2022-12-25T09:58:58.809Z,100594.58
2022-12-25T10:01:36.275Z,100595.55
2022-12-25T10:04:25.542Z,100594.67
2022-12-25T10:07:11.437Z,100594.58
2022-12-25T10:10:10.033Z,100592.78
2022-12-25T10:13:07.866Z,100595.25
2022-12-25T10:15:58.476Z,100595.80
2022-12-25T10:18:55.662Z,100598.11
2022-12-25T10:21:28.306Z,100599.45
2022-12-25T10:24:14.025Z,100598.78
2022-12-25T10:26:46.990Z,100600.91
2022-12-25T10:29:20.618Z,100605.41
2022-12-25T10:31:56.860Z,100593.91
2022-12-25T10:34:29.300Z,100591.98
2022-12-25T10:37:02.509Z,100587.95
2022-12-25T10:39:36.077Z,100593.57
2022-12-25T10:42:40.618Z,100597.43
2022-12-25T10:45:13.085Z,100603.94
2022-12-25T10:47:45.814Z,100613.34
2022-12-25T10:50:24.733Z,100609.39
2022-12-25T10:53:05.856Z,100613.42
2022-12-25T10:55:38.870Z,100615.27
2022-12-25T10:58:16.090Z,100625.66
2022-12-25T11:01:02.433Z,100627.39
2022-12-25T11:03:40.376Z,100634.48
2022-12-25T11:06:27.721Z,100637.34
2022-12-25T11:09:01.641Z,100637.05
2022-12-25T11:11:34.146Z,100644.22
2022-12-25T11:14:06.455Z,100644.72
2022-12-25T11:16:40.427Z,100639.89
2022-12-25T11:19:26.950Z,100634.61
2022-12-25T11:22:01.356Z,100637.21
2022-12-25T11:24:35.197Z,100635.16
2022-12-25T11:27:07.922Z,100637.96
2022-12-25T11:29:53.946Z,100643.55
2022-12-25T11:32:51.391Z,100638.80
2022-12-25T11:35:26.846Z,100639.17
2022-12-25T11:37:59.159Z,100647.06
2022-12-25T11:40:50.335Z,100643.13
2022-12-25T11:43:43.359Z,100646.10
2022-12-25T11:46:23.223Z,100653.35
2022-12-25T11:48:59.206Z,100652.94
2022-12-25T11:51:38.127Z,100657.47
2022-12-25T11:54:27.286Z,100659.48
2022-12-25T11:57:01.242Z,100661.70
2022-12-25T11:59:53.553Z,100665.36
2022-12-25T12:02:47.747Z,100666.78
2022-12-25T12:05:33.808Z,100663.77
2022-12-25T12:08:07.324Z,100664.94
2022-12-25T12:10:53.521Z,100666.53
2022-12-25T12:14:04.203Z,100672.20
2022-12-25T12:16:37.028Z,100676.52
2022-12-25T12:19:29.658Z,100686.68
2022-12-25T12:22:03.737Z,100693.16
2022-12-25T12:24:42.953Z,100695.84
2022-12-25T12:27:25.291Z,100704.15
2022-12-25T12:29:59.487Z,100705.29
2022-12-25T12:32:48.003Z,100707.77
2022-12-25T12:35:23.722Z,100717.75
2022-12-25T12:38:02.614Z,100711.37
2022-12-25T12:40:38.671Z,100723.05
2022-12-25T12:43:30.976Z,100719.22
2022-12-25T12:46:31.263Z,100730.21
2022-12-25T12:49:25.946Z,100732.27
2022-12-25T12:52:18.015Z,100728.81
2022-12-25T12:55:06.494Z,100730.24
2022-12-25T12:57:41.739Z,100729.83
2022-12-25T13:00:19.983Z,100731.17
2022-12-25T13:03:09.877Z,100729.06
2022-12-25T13:05:58.449Z,100732.68
2022-12-25T13:08:50.825Z,100737.37
2022-12-25T13:11:32.507Z,100738.41
2022-12-25T13:14:05.934Z,100748.35
2022-12-25T13:16:42.954Z,100753.17
2022-12-25T13:19:27.519Z,100746.73
2022-12-25T13:22:02.497Z,100754.38
2022-12-25T13:24:37.915Z,100752.27
2022-12-25T13:27:29.560Z,100757.80
2022-12-25T13:30:16.186Z,100757.95
2022-12-25T13:32:49.462Z,100766.55
2022-12-25T13:35:22.405Z,100768.05
2022-12-25T13:37:54.920Z,100768.63
2022-12-25T13:40:28.983Z,100772.66
2022-12-25T13:43:02.238Z,100778.95
2022-12-25T13:45:37.741Z,100775.08
2022-12-25T13:48:20.983Z,100783.86
2022-12-25T13:51:01.819Z,100788.84
2022-12-25T13:53:34.442Z,100790.34
2022-12-25T13:56:07.131Z,100797.20
2022-12-25T13:58:40.571Z,100798.28
2022-12-25T14:01:13.029Z,100800.35
2022-12-25T14:03:49.334Z,100796.41
2022-12-25T14:06:27.865Z,100800.35
2022-12-25T14:09:00.490Z,100807.59
2022-12-25T14:11:32.958Z,100811.77
2022-12-25T14:14:09.325Z,100809.24
2022-12-25T14:16:44.286Z,100812.42
2022-12-25T14:19:31.464Z,100816.83
2022-12-25T14:22:14.306Z,100821.16
2022-12-25T14:24:46.815Z,100830.70
2022-12-25T14:27:23.617Z,100831.66
2022-12-25T14:29:59.939Z,100837.02
2022-12-25T14:32:33.072Z,100837.52
2022-12-25T14:35:06.269Z,100842.16
2022-12-25T14:37:39.468Z,100843.19
2022-12-25T14:40:28.377Z,100852.23
2022-12-25T14:43:03.414Z,100851.31
2022-12-25T14:45:39.743Z,100858.02
2022-12-25T14:48:25.541Z,100860.05
2022-12-25T14:51:03.083Z,100860.55
2022-12-25T14:53:49.709Z,100856.59
2022-12-25T14:56:23.168Z,100861.16
2022-12-25T14:58:58.669Z,100859.43
2022-12-25T15:01:36.603Z,100864.88
2022-12-25T15:04:15.207Z,100873.38
2022-12-25T15:07:00.032Z,100880.08
2022-12-25T15:09:32.411Z,100885.83
2022-12-25T15:12:05.529Z,100887.91
2022-12-25T15:14:39.652Z,100886.18
2022-12-25T15:17:13.568Z,100888.86
2022-12-25T15:19:46.051Z,100883.00
2022-12-25T15:22:20.214Z,100884.59
2022-12-25T15:24:58.757Z,100885.45
2022-12-25T15:27:27.023Z,100887.03
2022-12-25T15:30:09.822Z,100894.30
2022-12-25T15:32:33.845Z,100901.86
2022-12-25T15:35:07.222Z,100896.98
2022-12-25T15:37:40.151Z,100901.01
2022-12-25T15:40:15.216Z,100901.86
2022-12-25T15:42:49.179Z,100900.69
2022-12-25T15:45:25.665Z,100902.95
2022-12-25T15:47:58.922Z,100904.15
2022-12-25T15:50:32.894Z,100909.13
2022-12-25T15:53:05.598Z,100909.27
2022-12-25T15:55:38.288Z,100912.48
2022-12-25T15:58:15.312Z,100916.13
2022-12-25T16:00:48.174Z,100913.44
2022-12-25T16:03:20.679Z,100908.95
2022-12-25T16:05:54.854Z,100905.78
2022-12-25T16:08:27.325Z,100915.45
2022-12-25T16:11:00.118Z,100916.37
2022-12-25T16:13:33.492Z,100915.80
2022-12-25T16:16:07.213Z,100916.27
2022-12-25T16:18:46.733Z,100918.00
2022-12-25T16:21:18.686Z,100914.53
2022-12-25T16:23:51.091Z,100916.66
2022-12-25T16:26:23.630Z,100916.52
2022-12-25T16:28:55.988Z,100917.78
2022-12-25T16:31:28.439Z,100919.61
2022-12-25T16:34:01.726Z,100923.14
2022-12-25T16:36:34.241Z,100920.46
2022-12-25T16:39:06.806Z,100920.46
2022-12-25T16:41:39.440Z,100915.31
2022-12-25T16:44:12.072Z,100908.68
2022-12-25T16:46:45.257Z,100914.53
2022-12-25T16:49:18.015Z,100908.94
2022-12-25T16:51:50.477Z,100919.31
2022-12-25T16:54:23.001Z,100927.42
2022-12-25T16:56:56.568Z,100924.89
2022-12-25T16:59:31.416Z,100925.37
2022-12-25T17:02:03.893Z,100924.42
2022-12-25T17:04:36.635Z,100927.04
2022-12-25T17:07:09.532Z,100924.81
2022-12-25T17:09:44.618Z,100938.30
2022-12-25T17:12:15.895Z,100937.91
2022-12-25T17:14:48.796Z,100950.11
2022-12-25T17:17:21.104Z,100952.02
2022-12-25T17:19:53.592Z,100950.25
2022-12-25T17:22:26.179Z,100959.25
2022-12-25T17:24:58.704Z,100953.08
2022-12-25T17:27:31.318Z,100966.23
2022-12-25T17:30:03.935Z,100966.93
2022-12-25T17:32:36.541Z,100962.97
2022-12-25T17:35:10.024Z,100960.16
2022-12-25T17:37:42.433Z,100961.00
2022-12-25T17:40:15.837Z,100960.30
2022-12-25T17:42:48.568Z,100962.69
2022-12-25T17:45:21.153Z,100960.22
2022-12-25T17:47:57.707Z,100961.30
2022-12-25T17:50:34.567Z,100965.39
2022-12-25T17:53:05.521Z,100965.59
2022-12-25T17:55:41.668Z,100971.02
2022-12-25T17:58:14.184Z,100980.47
2022-12-25T18:00:47.010Z,100991.48
2022-12-25T18:03:19.722Z,100984.64
2022-12-25T18:05:52.426Z,100966.86
2022-12-25T18:08:25.425Z,100965.41
2022-12-25T18:10:59.891Z,100968.78
2022-12-25T18:13:32.724Z,100978.88
2022-12-25T18:16:07.137Z,100984.86
2022-12-25T18:18:39.841Z,100989.27
2022-12-25T18:21:13.054Z,100991.88
2022-12-25T18:23:46.521Z,100991.07
2022-12-25T18:26:19.456Z,100996.75
2022-12-25T18:28:52.443Z,101002.80
2022-12-25T18:31:26.986Z,101010.89
2022-12-25T18:34:00.049Z,101011.78
2022-12-25T18:36:33.562Z,101012.83
2022-12-25T18:39:06.087Z,101009.87
2022-12-25T18:41:40.862Z,101013.96
2022-12-25T18:44:14.584Z,101021.99
2022-12-25T18:46:47.716Z,101017.13
2022-12-25T18:49:21.002Z,101019.31
2022-12-25T18:51:54.121Z,101019.31
2022-12-25T18:54:28.140Z,101018.59
2022-12-25T18:57:05.435Z,101022.67
2022-12-25T18:59:34.966Z,101027.09
2022-12-25T19:02:07.574Z,101027.48
2022-12-25T19:04:40.103Z,101022.19
2022-12-25T19:07:12.880Z,101025.81
2022-12-25T19:09:45.333Z,101024.53
2022-12-25T19:12:18.027Z,101025.55
2022-12-25T19:14:50.732Z,101033.02
2022-12-25T19:17:27.994Z,101030.28
2022-12-25T19:19:59.150Z,101038.06
2022-12-25T19:22:33.233Z,101042.08
2022-12-25T19:25:07.463Z,101047.77
2022-12-25T19:27:40.110Z,101046.36
2022-12-25T19:30:13.689Z,101044.56
2022-12-25T19:32:47.510Z,101045.58
2022-12-25T19:35:19.790Z,101044.63
2022-12-25T19:37:53.188Z,101050.54
2022-12-25T19:40:26.534Z,101055.89
2022-12-25T19:42:59.061Z,101052.40
2022-12-25T19:45:31.527Z,101054.00
2022-12-25T19:48:04.874Z,101057.89
2022-12-25T19:50:37.751Z,101055.73
2022-12-25T19:53:10.475Z,101053.61
2022-12-25T19:55:43.323Z,101062.04
2022-12-25T19:58:16.053Z,101062.04
2022-12-25T20:01:08.103Z,101059.91
2022-12-25T20:03:46.179Z,101065.39
2022-12-25T20:06:21.452Z,101067.85
2022-12-25T20:08:56.949Z,101072.62
2022-12-25T20:11:32.000Z,101068.61
2022-12-25T20:14:06.689Z,101080.78
2022-12-25T20:16:39.612Z,101072.36
2022-12-25T20:19:15.123Z,101076.89
2022-12-25T20:21:47.453Z,101083.25
2022-12-25T20:24:20.826Z,101079.03
2022-12-25T20:26:58.811Z,101078.27
2022-12-25T20:29:27.690Z,101068.97
2022-12-25T20:32:00.554Z,101076.59
2022-12-25T20:34:33.491Z,101087.98
2022-12-25T20:37:06.132Z,101079.88
2022-12-25T20:39:40.468Z,101091.75
2022-12-25T20:42:14.224Z,101100.20
2022-12-25T20:44:46.782Z,101102.95
2022-12-25T20:47:19.271Z,101103.67
2022-12-25T20:49:51.702Z,101099.59
2022-12-25T20:52:24.173Z,101101.94
2022-12-25T20:54:57.049Z,101103.16
2022-12-25T20:57:29.885Z,101099.14
2022-12-25T21:00:02.418Z,101105.50
2022-12-25T21:02:38.160Z,101113.11
2022-12-25T21:05:14.791Z,101112.26
2022-12-25T21:07:47.788Z,101113.72
2022-12-25T21:10:20.315Z,101108.55
2022-12-25T21:12:53.466Z,101122.39
2022-12-25T21:15:26.069Z,101124.49
2022-12-25T21:17:58.418Z,101123.61
2022-12-25T21:20:31.038Z,101120.93
2022-12-25T21:23:03.564Z,101126.28
2022-12-25T21:25:36.985Z,101120.93
2022-12-25T21:28:09.325Z,101127.11
2022-12-25T21:30:41.902Z,101126.16
2022-12-25T21:33:33.135Z,101126.80
2022-12-25T21:36:10.167Z,101122.94
2022-12-25T21:38:42.539Z,101120.78
2022-12-25T21:41:17.631Z,101112.35
2022-12-25T21:43:50.129Z,101114.97
2022-12-25T21:46:23.577Z,101107.21
2022-12-25T21:48:56.050Z,101109.39
2022-12-25T21:51:51.016Z,101103.07
2022-12-25T21:54:23.265Z,101099.57
2022-12-25T21:56:55.476Z,101101.98
2022-12-25T21:59:27.878Z,101102.43
2022-12-25T22:02:00.830Z,101099.69
2022-12-25T22:04:33.517Z,101100.58
2022-12-25T22:07:18.292Z,101105.94
2022-12-25T22:09:52.258Z,101107.27
2022-12-25T22:12:42.712Z,101106.94
2022-12-25T22:15:15.471Z,101095.86
2022-12-25T22:18:06.065Z,101099.94
2022-12-25T22:20:40.098Z,101099.48
2022-12-25T22:23:14.535Z,101094.95
2022-12-25T22:25:47.210Z,101085.39
2022-12-25T22:28:19.621Z,101086.52
2022-12-25T22:30:52.982Z,101087.73
2022-12-25T22:33:27.229Z,101083.84
2022-12-25T22:36:18.431Z,101080.83
2022-12-25T22:38:50.912Z,101090.93
2022-12-25T22:41:27.017Z,101092.15
2022-12-25T22:46:32.167Z,101096.56
2022-12-25T22:49:04.622Z,101093.70
2022-12-25T22:51:37.018Z,101100.03
2022-12-25T22:54:09.738Z,101109.00
2022-12-25T22:56:43.237Z,101109.39
2022-12-25T22:59:36.648Z,101106.20
2022-12-25T23:02:11.209Z,101102.58
2022-12-25T23:04:43.695Z,101094.97
2022-12-25T23:07:16.012Z,101109.16
2022-12-25T23:09:48.530Z,101111.31
2022-12-25T23:12:38.807Z,101108.02
2022-12-25T23:15:11.775Z,101113.75
2022-12-25T23:18:01.893Z,101125.31
2022-12-25T23:20:52.765Z,101141.31
2022-12-25T23:23:43.233Z,101139.38
2022-12-25T23:26:17.061Z,101137.06
2022-12-25T23:29:07.054Z,101141.80
2022-12-25T23:31:41.011Z,101142.20
2022-12-25T23:34:13.194Z,101139.52
2022-12-25T23:36:45.609Z,101140.27
2022-12-25T23:39:18.066Z,101140.55
2022-12-25T23:41:51.802Z,101142.45
2022-12-25T23:44:24.663Z,101144.12
2022-12-25T23:46:58.392Z,101147.69
2022-12-25T23:49:30.784Z,101150.42
2022-12-25T23:52:03.243Z,101152.28
2022-12-25T23:54:36.397Z,101148.81
2022-12-25T23:57:08.940Z,101140.78
2022-12-25T23:59:41.540Z,101138.89
